Terminal Aerodrome Forecast
Issued by NWS

Home | Current Version | Previous Version | Text Only | Print | Product List | Glossary On
Versions: 1 2 3 4 5 6 7 8 9 10 11 12 13 14 15
000
FTUS45 KTFX 260527
TAFLWT
TAF
KLWT 260527Z 2606/2706 03007KT P6SM SCT050 BKN100
      TEMPO 2608/2610 BKN025
     FM261000 05007KT P6SM VCSH SCT015 OVC025
      TEMPO 2611/2615 5SM -RASN BR BKN015
     FM261500 07010KT P6SM VCSH SCT025 OVC050
      TEMPO 2615/2619 -RA BKN025
     FM262300 VRB06KT P6SM SCT040 BKN080=

USA.gov is the U.S. government's official web portal to all federal, state and local government web resources and services.